sensor_id;sensor_type;location;lat;lon;timestamp;P1;durP1;ratioP1;P2;durP2;ratioP2
5491;SDS011;2768;53.540;10.224;2023-11-18T00:03:09;6.10;;;5.50;;
5491;SDS011;2768;53.540;10.224;2023-11-18T00:09:03;7.27;;;5.60;;
5491;SDS011;2768;53.540;10.224;2023-11-18T00:14:59;5.47;;;4.97;;
5491;SDS011;2768;53.540;10.224;2023-11-18T00:20:55;5.43;;;4.83;;
5491;SDS011;2768;53.540;10.224;2023-11-18T00:26:49;6.00;;;5.30;;
5491;SDS011;2768;53.540;10.224;2023-11-18T00:32:43;5.67;;;4.80;;
5491;SDS011;2768;53.540;10.224;2023-11-18T00:38:37;7.13;;;4.87;;
5491;SDS011;2768;53.540;10.224;2023-11-18T00:44:30;6.60;;;5.90;;
5491;SDS011;2768;53.540;10.224;2023-11-18T00:50:25;6.03;;;5.43;;
5491;SDS011;2768;53.540;10.224;2023-11-18T00:56:19;6.20;;;5.60;;
5491;SDS011;2768;53.540;10.224;2023-11-18T01:02:13;6.00;;;5.33;;
5491;SDS011;2768;53.540;10.224;2023-11-18T01:08:08;5.53;;;5.03;;
5491;SDS011;2768;53.540;10.224;2023-11-18T01:14:01;6.20;;;5.57;;
5491;SDS011;2768;53.540;10.224;2023-11-18T01:19:55;6.57;;;5.97;;
5491;SDS011;2768;53.540;10.224;2023-11-18T01:25:51;6.43;;;5.63;;
5491;SDS011;2768;53.540;10.224;2023-11-18T01:31:45;6.07;;;5.47;;
5491;SDS011;2768;53.540;10.224;2023-11-18T01:37:43;5.83;;;4.93;;
5491;SDS011;2768;53.540;10.224;2023-11-18T01:43:37;5.73;;;5.10;;
5491;SDS011;2768;53.540;10.224;2023-11-18T01:49:31;6.10;;;5.50;;
5491;SDS011;2768;53.540;10.224;2023-11-18T01:55:29;6.03;;;5.43;;
5491;SDS011;2768;53.540;10.224;2023-11-18T02:01:23;6.80;;;5.53;;
5491;SDS011;2768;53.540;10.224;2023-11-18T02:07:18;6.10;;;5.47;;
5491;SDS011;2768;53.540;10.224;2023-11-18T02:13:15;7.70;;;6.20;;
5491;SDS011;2768;53.540;10.224;2023-11-18T02:19:19;7.57;;;6.50;;
5491;SDS011;2768;53.540;10.224;2023-11-18T02:25:14;8.00;;;6.20;;
5491;SDS011;2768;53.540;10.224;2023-11-18T02:31:13;7.73;;;6.53;;
5491;SDS011;2768;53.540;10.224;2023-11-18T02:37:13;8.63;;;6.50;;
5491;SDS011;2768;53.540;10.224;2023-11-18T02:43:08;7.80;;;7.00;;
5491;SDS011;2768;53.540;10.224;2023-11-18T02:49:03;7.30;;;6.60;;
5491;SDS011;2768;53.540;10.224;2023-11-18T02:54:56;8.07;;;6.93;;
5491;SDS011;2768;53.540;10.224;2023-11-18T03:00:50;9.20;;;6.70;;
5491;SDS011;2768;53.540;10.224;2023-11-18T03:06:44;8.27;;;7.40;;
5491;SDS011;2768;53.540;10.224;2023-11-18T03:12:37;7.97;;;7.17;;
5491;SDS011;2768;53.540;10.224;2023-11-18T03:18:31;9.37;;;7.20;;
5491;SDS011;2768;53.540;10.224;2023-11-18T03:24:26;7.80;;;7.00;;
5491;SDS011;2768;53.540;10.224;2023-11-18T03:30:22;9.13;;;6.50;;
5491;SDS011;2768;53.540;10.224;2023-11-18T03:36:15;7.93;;;7.10;;
5491;SDS011;2768;53.540;10.224;2023-11-18T03:42:11;9.13;;;6.20;;
5491;SDS011;2768;53.540;10.224;2023-11-18T03:48:04;6.60;;;6.00;;
5491;SDS011;2768;53.540;10.224;2023-11-18T03:53:57;7.30;;;6.60;;
5491;SDS011;2768;53.540;10.224;2023-11-18T03:59:52;7.20;;;6.47;;
5491;SDS011;2768;53.540;10.224;2023-11-18T04:05:45;7.77;;;6.13;;
5491;SDS011;2768;53.540;10.224;2023-11-18T04:11:39;6.20;;;5.57;;
5491;SDS011;2768;53.540;10.224;2023-11-18T04:17:34;8.10;;;6.90;;
5491;SDS011;2768;53.540;10.224;2023-11-18T04:23:30;8.50;;;6.00;;
5491;SDS011;2768;53.540;10.224;2023-11-18T04:29:24;7.33;;;6.60;;
5491;SDS011;2768;53.540;10.224;2023-11-18T04:35:19;7.70;;;6.00;;
5491;SDS011;2768;53.540;10.224;2023-11-18T04:41:14;6.73;;;5.90;;
5491;SDS011;2768;53.540;10.224;2023-11-18T04:47:07;7.20;;;6.50;;
5491;SDS011;2768;53.540;10.224;2023-11-18T04:53:04;7.33;;;6.17;;
5491;SDS011;2768;53.540;10.224;2023-11-18T04:58:59;6.63;;;5.73;;
5491;SDS011;2768;53.540;10.224;2023-11-18T05:04:53;6.37;;;5.77;;
5491;SDS011;2768;53.540;10.224;2023-11-18T05:10:48;7.30;;;5.93;;
5491;SDS011;2768;53.540;10.224;2023-11-18T05:16:42;8.13;;;6.00;;
5491;SDS011;2768;53.540;10.224;2023-11-18T05:22:35;7.47;;;6.43;;
5491;SDS011;2768;53.540;10.224;2023-11-18T05:28:30;7.13;;;6.20;;
5491;SDS011;2768;53.540;10.224;2023-11-18T05:34:34;8.50;;;6.50;;
5491;SDS011;2768;53.540;10.224;2023-11-18T05:40:27;6.00;;;5.40;;
5491;SDS011;2768;53.540;10.224;2023-11-18T05:46:23;7.07;;;5.63;;
5491;SDS011;2768;53.540;10.224;2023-11-18T05:52:17;7.40;;;6.00;;
5491;SDS011;2768;53.540;10.224;2023-11-18T05:58:11;6.23;;;5.63;;
5491;SDS011;2768;53.540;10.224;2023-11-18T06:04:06;8.97;;;7.03;;
5491;SDS011;2768;53.540;10.224;2023-11-18T06:10:01;8.47;;;6.53;;
5491;SDS011;2768;53.540;10.224;2023-11-18T06:15:56;9.03;;;8.13;;
5491;SDS011;2768;53.540;10.224;2023-11-18T06:21:52;7.47;;;6.67;;
5491;SDS011;2768;53.540;10.224;2023-11-18T06:27:46;6.63;;;5.63;;
5491;SDS011;2768;53.540;10.224;2023-11-18T06:33:40;6.70;;;5.80;;
5491;SDS011;2768;53.540;10.224;2023-11-18T06:39:40;7.10;;;6.40;;
5491;SDS011;2768;53.540;10.224;2023-11-18T06:45:35;8.33;;;5.77;;
5491;SDS011;2768;53.540;10.224;2023-11-18T06:51:28;7.77;;;6.20;;
5491;SDS011;2768;53.540;10.224;2023-11-18T06:57:24;7.00;;;6.30;;
5491;SDS011;2768;53.540;10.224;2023-11-18T07:03:17;7.50;;;6.70;;
5491;SDS011;2768;53.540;10.224;2023-11-18T07:09:11;8.60;;;7.13;;
5491;SDS011;2768;53.540;10.224;2023-11-18T07:15:11;9.07;;;7.63;;
5491;SDS011;2768;53.540;10.224;2023-11-18T07:21:04;8.10;;;6.90;;
5491;SDS011;2768;53.540;10.224;2023-11-18T07:26:58;9.03;;;7.10;;
5491;SDS011;2768;53.540;10.224;2023-11-18T07:32:52;7.97;;;7.10;;
5491;SDS011;2768;53.540;10.224;2023-11-18T07:38:45;8.20;;;7.23;;
5491;SDS011;2768;53.540;10.224;2023-11-18T07:44:39;8.53;;;7.50;;
5491;SDS011;2768;53.540;10.224;2023-11-18T07:50:34;11.60;;;8.60;;
5491;SDS011;2768;53.540;10.224;2023-11-18T07:56:28;7.77;;;6.90;;
5491;SDS011;2768;53.540;10.224;2023-11-18T08:02:23;8.77;;;7.10;;
5491;SDS011;2768;53.540;10.224;2023-11-18T08:08:18;7.50;;;6.37;;
5491;SDS011;2768;53.540;10.224;2023-11-18T08:14:12;9.40;;;7.40;;
5491;SDS011;2768;53.540;10.224;2023-11-18T08:20:06;10.20;;;7.50;;
5491;SDS011;2768;53.540;10.224;2023-11-18T08:26:06;7.40;;;6.50;;
5491;SDS011;2768;53.540;10.224;2023-11-18T08:32:01;8.80;;;6.77;;
5491;SDS011;2768;53.540;10.224;2023-11-18T08:37:54;8.50;;;7.03;;
5491;SDS011;2768;53.540;10.224;2023-11-18T08:43:49;10.97;;;7.90;;
5491;SDS011;2768;53.540;10.224;2023-11-18T08:49:43;6.80;;;5.80;;
5491;SDS011;2768;53.540;10.224;2023-11-18T08:55:37;6.77;;;5.90;;
5491;SDS011;2768;53.540;10.224;2023-11-18T09:01:35;7.20;;;6.27;;
5491;SDS011;2768;53.540;10.224;2023-11-18T09:07:30;9.00;;;6.17;;
5491;SDS011;2768;53.540;10.224;2023-11-18T09:13:26;5.43;;;4.70;;
5491;SDS011;2768;53.540;10.224;2023-11-18T09:19:23;6.73;;;5.50;;
5491;SDS011;2768;53.540;10.224;2023-11-18T09:25:16;5.00;;;4.43;;
5491;SDS011;2768;53.540;10.224;2023-11-18T09:31:09;5.23;;;3.93;;
5491;SDS011;2768;53.540;10.224;2023-11-18T09:37:05;6.70;;;4.40;;
5491;SDS011;2768;53.540;10.224;2023-11-18T09:43:01;5.70;;;4.37;;
5491;SDS011;2768;53.540;10.224;2023-11-18T09:49:05;5.33;;;4.33;;
5491;SDS011;2768;53.540;10.224;2023-11-18T09:55:10;5.20;;;4.70;;
5491;SDS011;2768;53.540;10.224;2023-11-18T10:01:11;4.57;;;4.00;;
5491;SDS011;2768;53.540;10.224;2023-11-18T10:07:05;4.00;;;3.60;;
5491;SDS011;2768;53.540;10.224;2023-11-18T10:13:03;3.80;;;3.37;;
5491;SDS011;2768;53.540;10.224;2023-11-18T10:19:00;2.10;;;2.00;;
5491;SDS011;2768;53.540;10.224;2023-11-18T10:25:00;1.87;;;1.77;;
5491;SDS011;2768;53.540;10.224;2023-11-18T10:30:59;2.83;;;2.03;;
5491;SDS011;2768;53.540;10.224;2023-11-18T10:36:59;2.27;;;2.10;;
5491;SDS011;2768;53.540;10.224;2023-11-18T10:42:53;3.83;;;2.03;;
5491;SDS011;2768;53.540;10.224;2023-11-18T10:48:50;3.80;;;3.03;;
5491;SDS011;2768;53.540;10.224;2023-11-18T10:54:49;2.60;;;2.40;;
5491;SDS011;2768;53.540;10.224;2023-11-18T11:00:46;3.47;;;1.73;;
5491;SDS011;2768;53.540;10.224;2023-11-18T11:06:43;1.80;;;1.70;;
5491;SDS011;2768;53.540;10.224;2023-11-18T11:12:50;1.80;;;1.70;;
5491;SDS011;2768;53.540;10.224;2023-11-18T11:18:47;2.47;;;2.27;;
5491;SDS011;2768;53.540;10.224;2023-11-18T11:24:54;1.73;;;1.60;;
5491;SDS011;2768;53.540;10.224;2023-11-18T11:31:03;1.87;;;1.77;;
5491;SDS011;2768;53.540;10.224;2023-11-18T11:37:07;1.10;;;1.10;;
5491;SDS011;2768;53.540;10.224;2023-11-18T11:43:03;2.30;;;1.70;;
5491;SDS011;2768;53.540;10.224;2023-11-18T11:49:01;1.80;;;1.70;;
5491;SDS011;2768;53.540;10.224;2023-11-18T11:55:05;3.47;;;2.20;;
5491;SDS011;2768;53.540;10.224;2023-11-18T12:01:15;2.63;;;2.43;;
5491;SDS011;2768;53.540;10.224;2023-11-18T12:07:15;3.20;;;2.90;;
5491;SDS011;2768;53.540;10.224;2023-11-18T12:13:11;3.03;;;2.80;;
5491;SDS011;2768;53.540;10.224;2023-11-18T12:19:30;3.30;;;3.00;;
5491;SDS011;2768;53.540;10.224;2023-11-18T12:25:28;2.60;;;2.40;;
5491;SDS011;2768;53.540;10.224;2023-11-18T12:31:38;2.87;;;2.57;;
5491;SDS011;2768;53.540;10.224;2023-11-18T12:37:40;2.13;;;1.90;;
5491;SDS011;2768;53.540;10.224;2023-11-18T12:44:01;2.30;;;2.10;;
5491;SDS011;2768;53.540;10.224;2023-11-18T12:50:09;3.40;;;2.13;;
5491;SDS011;2768;53.540;10.224;2023-11-18T12:56:16;2.43;;;2.23;;
5491;SDS011;2768;53.540;10.224;2023-11-18T13:02:11;2.80;;;2.60;;
5491;SDS011;2768;53.540;10.224;2023-11-18T13:08:12;2.70;;;2.50;;
5491;SDS011;2768;53.540;10.224;2023-11-18T13:14:08;2.70;;;2.47;;
5491;SDS011;2768;53.540;10.224;2023-11-18T13:20:10;6.63;;;4.87;;
5491;SDS011;2768;53.540;10.224;2023-11-18T13:26:06;5.33;;;4.63;;
5491;SDS011;2768;53.540;10.224;2023-11-18T13:32:02;3.30;;;3.00;;
5491;SDS011;2768;53.540;10.224;2023-11-18T13:37:56;3.03;;;2.63;;
5491;SDS011;2768;53.540;10.224;2023-11-18T13:43:49;3.30;;;3.00;;
5491;SDS011;2768;53.540;10.224;2023-11-18T13:49:45;4.13;;;3.73;;
5491;SDS011;2768;53.540;10.224;2023-11-18T13:55:44;3.10;;;2.90;;
5491;SDS011;2768;53.540;10.224;2023-11-18T14:01:40;3.20;;;2.90;;
5491;SDS011;2768;53.540;10.224;2023-11-18T14:07:38;2.90;;;2.70;;
5491;SDS011;2768;53.540;10.224;2023-11-18T14:13:32;2.50;;;2.30;;
5491;SDS011;2768;53.540;10.224;2023-11-18T14:19:26;3.37;;;2.23;;
5491;SDS011;2768;53.540;10.224;2023-11-18T14:25:22;2.57;;;2.40;;
5491;SDS011;2768;53.540;10.224;2023-11-18T14:31:16;2.40;;;2.20;;
5491;SDS011;2768;53.540;10.224;2023-11-18T14:37:09;3.33;;;2.60;;
5491;SDS011;2768;53.540;10.224;2023-11-18T14:43:04;2.70;;;2.50;;
5491;SDS011;2768;53.540;10.224;2023-11-18T14:48:58;3.40;;;3.10;;
5491;SDS011;2768;53.540;10.224;2023-11-18T14:54:51;3.60;;;3.30;;
5491;SDS011;2768;53.540;10.224;2023-11-18T15:00:46;3.67;;;3.30;;
5491;SDS011;2768;53.540;10.224;2023-11-18T15:06:39;3.23;;;2.70;;
5491;SDS011;2768;53.540;10.224;2023-11-18T15:12:33;3.73;;;3.43;;
5491;SDS011;2768;53.540;10.224;2023-11-18T15:18:28;3.47;;;3.17;;
5491;SDS011;2768;53.540;10.224;2023-11-18T15:24:22;4.33;;;3.77;;
5491;SDS011;2768;53.540;10.224;2023-11-18T15:30:16;4.10;;;3.57;;
5491;SDS011;2768;53.540;10.224;2023-11-18T15:36:11;3.53;;;3.23;;
5491;SDS011;2768;53.540;10.224;2023-11-18T15:42:06;3.83;;;3.43;;
5491;SDS011;2768;53.540;10.224;2023-11-18T15:48:01;3.10;;;2.90;;
5491;SDS011;2768;53.540;10.224;2023-11-18T15:53:58;3.70;;;3.40;;
5491;SDS011;2768;53.540;10.224;2023-11-18T15:59:51;3.27;;;2.97;;
5491;SDS011;2768;53.540;10.224;2023-11-18T16:05:44;7.20;;;3.20;;
5491;SDS011;2768;53.540;10.224;2023-11-18T16:11:38;3.97;;;3.50;;
5491;SDS011;2768;53.540;10.224;2023-11-18T16:17:32;3.27;;;3.07;;
5491;SDS011;2768;53.540;10.224;2023-11-18T16:23:25;3.07;;;2.87;;
5491;SDS011;2768;53.540;10.224;2023-11-18T16:29:23;3.47;;;3.23;;
5491;SDS011;2768;53.540;10.224;2023-11-18T16:35:16;3.60;;;3.30;;
5491;SDS011;2768;53.540;10.224;2023-11-18T16:41:10;4.00;;;3.60;;
5491;SDS011;2768;53.540;10.224;2023-11-18T16:47:05;4.03;;;3.60;;
5491;SDS011;2768;53.540;10.224;2023-11-18T16:52:58;7.87;;;5.77;;
5491;SDS011;2768;53.540;10.224;2023-11-18T16:58:56;4.33;;;3.90;;
5491;SDS011;2768;53.540;10.224;2023-11-18T17:04:52;5.40;;;4.13;;
5491;SDS011;2768;53.540;10.224;2023-11-18T17:10:46;5.80;;;4.30;;
5491;SDS011;2768;53.540;10.224;2023-11-18T17:16:45;5.83;;;4.50;;
5491;SDS011;2768;53.540;10.224;2023-11-18T17:22:41;5.80;;;4.70;;
5491;SDS011;2768;53.540;10.224;2023-11-18T17:28:35;7.10;;;5.27;;
5491;SDS011;2768;53.540;10.224;2023-11-18T17:34:28;7.97;;;5.87;;
5491;SDS011;2768;53.540;10.224;2023-11-18T17:40:23;10.40;;;8.67;;
5491;SDS011;2768;53.540;10.224;2023-11-18T17:46:16;8.70;;;6.90;;
5491;SDS011;2768;53.540;10.224;2023-11-18T17:52:09;8.33;;;6.60;;
5491;SDS011;2768;53.540;10.224;2023-11-18T17:58:04;9.63;;;7.50;;
5491;SDS011;2768;53.540;10.224;2023-11-18T18:03:57;9.27;;;7.47;;
5491;SDS011;2768;53.540;10.224;2023-11-18T18:09:52;8.77;;;7.77;;
5491;SDS011;2768;53.540;10.224;2023-11-18T18:15:47;9.97;;;7.53;;
5491;SDS011;2768;53.540;10.224;2023-11-18T18:21:40;13.27;;;8.80;;
5491;SDS011;2768;53.540;10.224;2023-11-18T18:27:33;12.00;;;9.47;;
5491;SDS011;2768;53.540;10.224;2023-11-18T18:33:28;12.90;;;9.30;;
5491;SDS011;2768;53.540;10.224;2023-11-18T18:39:23;13.03;;;9.83;;
5491;SDS011;2768;53.540;10.224;2023-11-18T18:45:16;14.43;;;10.73;;
5491;SDS011;2768;53.540;10.224;2023-11-18T18:51:12;12.60;;;9.10;;
5491;SDS011;2768;53.540;10.224;2023-11-18T18:57:06;14.43;;;9.60;;
5491;SDS011;2768;53.540;10.224;2023-11-18T19:03:00;12.23;;;9.73;;
5491;SDS011;2768;53.540;10.224;2023-11-18T19:08:54;12.87;;;9.70;;
5491;SDS011;2768;53.540;10.224;2023-11-18T19:14:48;14.37;;;10.23;;
5491;SDS011;2768;53.540;10.224;2023-11-18T19:20:41;17.43;;;10.03;;
5491;SDS011;2768;53.540;10.224;2023-11-18T19:26:36;16.60;;;10.13;;
5491;SDS011;2768;53.540;10.224;2023-11-18T19:32:30;14.43;;;10.33;;
5491;SDS011;2768;53.540;10.224;2023-11-18T19:38:24;13.20;;;10.30;;
5491;SDS011;2768;53.540;10.224;2023-11-18T19:44:19;15.20;;;11.37;;
5491;SDS011;2768;53.540;10.224;2023-11-18T19:50:13;14.07;;;11.17;;
5491;SDS011;2768;53.540;10.224;2023-11-18T19:56:07;13.27;;;10.43;;
5491;SDS011;2768;53.540;10.224;2023-11-18T20:02:03;14.30;;;9.70;;
5491;SDS011;2768;53.540;10.224;2023-11-18T20:07:56;14.17;;;9.00;;
5491;SDS011;2768;53.540;10.224;2023-11-18T20:13:50;12.17;;;9.73;;
5491;SDS011;2768;53.540;10.224;2023-11-18T20:19:45;11.80;;;9.57;;
5491;SDS011;2768;53.540;10.224;2023-11-18T20:25:38;12.57;;;9.57;;
5491;SDS011;2768;53.540;10.224;2023-11-18T20:31:32;13.57;;;9.97;;
5491;SDS011;2768;53.540;10.224;2023-11-18T20:37:26;13.20;;;9.93;;
5491;SDS011;2768;53.540;10.224;2023-11-18T20:43:19;12.77;;;10.13;;
5491;SDS011;2768;53.540;10.224;2023-11-18T20:49:12;12.77;;;9.33;;
5491;SDS011;2768;53.540;10.224;2023-11-18T20:55:10;10.83;;;8.73;;
5491;SDS011;2768;53.540;10.224;2023-11-18T21:01:04;12.93;;;9.50;;
5491;SDS011;2768;53.540;10.224;2023-11-18T21:07:02;11.77;;;9.23;;
5491;SDS011;2768;53.540;10.224;2023-11-18T21:12:57;14.43;;;10.43;;
5491;SDS011;2768;53.540;10.224;2023-11-18T21:18:50;13.53;;;9.63;;
5491;SDS011;2768;53.540;10.224;2023-11-18T21:24:44;13.37;;;11.07;;
5491;SDS011;2768;53.540;10.224;2023-11-18T21:30:39;11.43;;;8.97;;
5491;SDS011;2768;53.540;10.224;2023-11-18T21:36:32;13.67;;;8.80;;
5491;SDS011;2768;53.540;10.224;2023-11-18T21:42:26;12.33;;;8.70;;
5491;SDS011;2768;53.540;10.224;2023-11-18T21:48:21;12.90;;;9.40;;
5491;SDS011;2768;53.540;10.224;2023-11-18T21:54:14;14.30;;;9.00;;
5491;SDS011;2768;53.540;10.224;2023-11-18T22:00:08;11.20;;;8.37;;
5491;SDS011;2768;53.540;10.224;2023-11-18T22:06:05;13.03;;;8.90;;
5491;SDS011;2768;53.540;10.224;2023-11-18T22:11:59;12.60;;;9.10;;
5491;SDS011;2768;53.540;10.224;2023-11-18T22:17:52;13.60;;;8.33;;
5491;SDS011;2768;53.540;10.224;2023-11-18T22:23:47;12.67;;;9.33;;
5491;SDS011;2768;53.540;10.224;2023-11-18T22:29:40;11.97;;;8.03;;
5491;SDS011;2768;53.540;10.224;2023-11-18T22:35:34;10.47;;;8.10;;
5491;SDS011;2768;53.540;10.224;2023-11-18T22:41:29;10.93;;;7.73;;
5491;SDS011;2768;53.540;10.224;2023-11-18T22:47:22;11.20;;;8.30;;
5491;SDS011;2768;53.540;10.224;2023-11-18T22:53:15;10.73;;;8.00;;
5491;SDS011;2768;53.540;10.224;2023-11-18T22:59:10;9.33;;;7.60;;
5491;SDS011;2768;53.540;10.224;2023-11-18T23:05:04;8.77;;;7.23;;
5491;SDS011;2768;53.540;10.224;2023-11-18T23:11:04;9.73;;;7.27;;
5491;SDS011;2768;53.540;10.224;2023-11-18T23:16:59;10.47;;;8.10;;
5491;SDS011;2768;53.540;10.224;2023-11-18T23:22:56;7.13;;;6.43;;
5491;SDS011;2768;53.540;10.224;2023-11-18T23:28:51;8.07;;;6.70;;
5491;SDS011;2768;53.540;10.224;2023-11-18T23:34:45;8.73;;;7.30;;
5491;SDS011;2768;53.540;10.224;2023-11-18T23:40:38;6.27;;;5.20;;
5491;SDS011;2768;53.540;10.224;2023-11-18T23:46:33;8.30;;;6.40;;
5491;SDS011;2768;53.540;10.224;2023-11-18T23:52:28;7.00;;;5.67;;
5491;SDS011;2768;53.540;10.224;2023-11-18T23:58:24;6.50;;;5.50;;
